TimeBST,TemperatureF,Dew PointF,Humidity,Sea Level PressureIn,VisibilityMPH,Wind Direction,Wind SpeedMPH,Gust SpeedMPH,PrecipitationIn,Events,Conditions,WindDirDegrees,DateUTC
12:50 AM,59,58,97,30.03,1,East,18.4,,,,Mist,100,2013-09-23 23:50:00
12:50 AM,59.0,59.0,100,30.01,0.9,East,18.4,-,N/A,,Overcast,100,2013-09-23 23:50:00
1:50 AM,59.0,59.0,100,30.01,0.9,East,16.1,-,N/A,,Mostly Cloudy,100,2013-09-24 00:50:00
2:50 AM,59.0,59.0,100,29.98,0.7,East,16.1,-,N/A,,Mostly Cloudy,100,2013-09-24 01:50:00
3:50 AM,59.0,59.0,100,29.98,0.6,East,13.8,-,N/A,,Overcast,100,2013-09-24 02:50:00
4:50 AM,59.0,59.0,100,29.95,0.5,East,13.8,-,N/A,Fog,Fog,100,2013-09-24 03:50:00
5:50 AM,59.0,59.0,100,29.95,0.6,East,11.5,-,N/A,,Mostly Cloudy,100,2013-09-24 04:50:00
6:50 AM,59,59,98,29.96,1,East,10.4,,,,Mist,100,2013-09-24 05:50:00
6:50 AM,59.0,59.0,100,29.95,0.7,East,10.4,-,N/A,,Mostly Cloudy,100,2013-09-24 05:50:00
7:50 AM,59.0,59.0,100,29.95,0.4,East,10.4,-,N/A,Fog,Fog,90,2013-09-24 06:50:00
8:50 AM,60.8,59.0,94,29.95,0.6,East,8.1,-,N/A,Fog,Fog,90,2013-09-24 07:50:00
9:15 AM,60.8,59.0,94,29.98,0.9,East,5.8,-,N/A,,Partly Cloudy,80,2013-09-24 08:15:00
9:50 AM,63,60,89,29.98,1,East,5.8,,,,Haze,90,2013-09-24 08:50:00
9:50 AM,62.6,60.8,94,29.98,1.5,East,5.8,-,N/A,,Haze,90,2013-09-24 08:50:00
10:44 AM,64.4,60.8,88,29.98,2.2,East,6.9,-,N/A,,Haze,90,2013-09-24 09:44:00
10:50 AM,64.4,60.8,88,29.98,-9999.0,East,6.9,-,N/A,,Haze,90,2013-09-24 09:50:00
11:13 AM,64.4,60.8,88,29.98,-9999.0,East,9.2,-,N/A,,Haze,90,2013-09-24 10:13:00
11:50 AM,64.4,60.8,88,29.98,-9999.0,East,6.9,-,N/A,,Haze,100,2013-09-24 10:50:00
12:50 PM,63,60,89,29.96,2,East,13.8,,,,Haze,90,2013-09-24 11:50:00
12:50 PM,62.6,60.8,94,29.95,2.5,East,13.8,-,N/A,,Haze,90,2013-09-24 11:50:00
1:50 PM,60.8,59.0,94,29.92,-9999.0,East,17.3,-,N/A,,Mostly Cloudy,100,2013-09-24 12:50:00
2:50 PM,62.6,60.8,94,29.92,2.5,East,12.7,-,N/A,,Haze,100,2013-09-24 13:50:00
3:50 PM,63,60,88,29.94,3,ESE,10.4,,,Rain,Light Rain,110,2013-09-24 14:50:00
3:50 PM,62.6,60.8,94,29.92,-9999.0,ESE,10.4,-,N/A,,Haze,110,2013-09-24 14:50:00
4:50 PM,62.6,60.8,94,29.92,-9999.0,ESE,11.5,-,N/A,,Haze,110,2013-09-24 15:50:00
5:50 PM,62.6,59.0,88,29.92,3.1,SE,6.9,-,N/A,,Haze,140,2013-09-24 16:50:00
6:50 PM,60,59,96,29.94,2,ESE,4.6,,,,Mist,120,2013-09-24 17:50:00
6:50 PM,60.8,59.0,94,29.92,2.5,ESE,4.6,-,N/A,,Mostly Cloudy,120,2013-09-24 17:50:00
7:50 PM,59.0,59.0,100,29.92,1.9,ESE,4.6,-,N/A,,Mostly Cloudy,110,2013-09-24 18:50:00
8:50 PM,59.0,59.0,100,29.92,1.6,East,8.1,-,N/A,,Overcast,80,2013-09-24 19:50:00
9:50 PM,59,58,96,29.93,1,ENE,8.1,,,,Mist,70,2013-09-24 20:50:00
9:50 PM,59.0,59.0,100,29.92,1.2,ENE,8.1,-,N/A,,Mostly Cloudy,70,2013-09-24 20:50:00
10:50 PM,59.0,59.0,100,29.92,0.2,East,10.4,-,N/A,Fog,Fog,80,2013-09-24 21:50:00
11:50 PM,59.0,59.0,100,29.89,0.2,East,10.4,-,N/A,Fog,Fog,80,2013-09-24 22:50:00